Time;durP1;ratioP1;P1;durP2;ratioP2;P2;SDS_P1;SDS_P2;PMS_P1;PMS_P2;Temp;Humidity;BMP_temperature;BMP_pressure;BME280_temperature;BME280_humidity;BME280_pressure;Samples;Min_cycle;Max_cycle;Signal;HPM_P1;HPM_P2
2021/08/08 00:00:04;;;;;;;2.20;0.85;;;18.10;78.30;;;;;;6250657;23;20289;-79
2021/08/08 00:02:39;;;;;;;1.15;0.60;;;18.10;78.40;;;;;;6251697;22;20054;-78
2021/08/08 00:05:10;;;;;;;3.20;0.63;;;18.20;78.20;;;;;;6250219;22;20075;-78
2021/08/08 00:07:38;;;;;;;2.50;0.77;;;18.20;78.40;;;;;;6252402;23;20324;-79
2021/08/08 00:10:06;;;;;;;1.83;0.70;;;18.20;78.30;;;;;;6251751;22;20260;-79
2021/08/08 00:12:35;;;;;;;2.45;0.60;;;18.20;78.40;;;;;;6249195;23;20020;-78
2021/08/08 00:15:03;;;;;;;2.88;0.90;;;18.10;78.50;;;;;;6247294;22;20082;-78
2021/08/08 00:17:31;;;;;;;1.40;0.63;;;18.20;78.40;;;;;;6252089;23;20307;-79
2021/08/08 00:19:59;;;;;;;1.20;0.55;;;18.20;78.10;;;;;;6251595;22;20295;-78
2021/08/08 00:22:28;;;;;;;1.60;0.80;;;18.10;78.50;;;;;;6250785;22;20024;-78
2021/08/08 00:24:55;;;;;;;1.55;0.73;;;18.20;78.10;;;;;;6250458;23;20034;-78
2021/08/08 00:27:23;;;;;;;2.30;0.75;;;18.20;78.20;;;;;;6250608;22;20279;-79
2021/08/08 00:29:50;;;;;;;1.67;0.63;;;18.20;78.10;;;;;;6249946;22;20024;-79
2021/08/08 00:32:17;;;;;;;2.30;0.77;;;18.10;78.20;;;;;;6248903;23;20090;-79
2021/08/08 00:34:45;;;;;;;0.88;0.50;;;18.20;78.30;;;;;;6250738;22;20023;-78
2021/08/08 00:37:12;;;;;;;1.70;0.60;;;18.20;78.50;;;;;;6247483;23;20020;-79
2021/08/08 00:39:41;;;;;;;1.02;0.40;;;18.10;78.60;;;;;;6248806;23;20595;-79
2021/08/08 00:42:08;;;;;;;1.88;0.68;;;18.10;78.50;;;;;;6249548;22;20051;-79
2021/08/08 00:44:36;;;;;;;1.40;0.77;;;18.20;78.50;;;;;;6249776;23;20024;-79
2021/08/08 00:47:04;;;;;;;1.55;0.68;;;18.10;78.10;;;;;;6248854;23;20236;-79
2021/08/08 00:49:33;;;;;;;1.98;0.52;;;18.10;78.30;;;;;;6247348;23;20034;-78
2021/08/08 00:52:01;;;;;;;2.50;0.75;;;18.10;78.20;;;;;;6250722;23;20026;-79
2021/08/08 00:54:35;;;;;;;2.38;0.70;;;18.10;78.20;;;;;;6272446;22;20024;-79
2021/08/08 00:57:05;;;;;;;1.95;0.65;;;18.10;78.20;;;;;;6250129;22;20066;-79
2021/08/08 00:59:33;;;;;;;2.00;0.80;;;18.10;78.20;;;;;;6249277;23;20019;-79
2021/08/08 01:02:05;;;;;;;1.52;0.65;;;18.10;78.00;;;;;;6245060;23;20027;-78
2021/08/08 01:04:40;;;;;;;1.20;0.55;;;18.10;78.10;;;;;;6247314;23;20020;-78
2021/08/08 01:07:13;;;;;;;2.50;0.70;;;18.10;78.30;;;;;;6246957;23;20094;-79
2021/08/08 01:09:45;;;;;;;1.85;0.70;;;18.00;78.40;;;;;;6250393;23;20034;-78
2021/08/08 01:12:16;;;;;;;1.05;0.50;;;17.90;78.60;;;;;;6269128;22;20055;-78
2021/08/08 01:14:58;;;;;;;1.00;0.65;;;17.80;78.60;;;;;;4113519;22;10021363;-79
2021/08/08 01:17:27;;;;;;;1.08;0.50;;;17.90;78.80;;;;;;3230947;23;10001879;-78
2021/08/08 01:20:01;;;;;;;1.70;0.60;;;17.90;78.70;;;;;;6247047;22;20209;-80
2021/08/08 01:22:52;;;;;;;1.45;1.02;;;17.90;78.60;;;;;;6250390;23;20020;-78
2021/08/08 01:25:22;;;;;;;1.45;0.80;;;17.90;78.80;;;;;;6246769;23;20031;-79
2021/08/08 01:27:52;;;;;;;1.80;0.50;;;17.80;79.00;;;;;;6245050;22;20032;-78
2021/08/08 01:30:22;;;;;;;0.93;0.55;;;17.70;79.30;;;;;;6249232;23;20039;-79
2021/08/08 01:32:50;;;;;;;3.05;0.60;;;17.70;79.20;;;;;;6249850;23;20028;-78
2021/08/08 01:35:20;;;;;;;;;;;17.70;79.40;;;;;;6248536;23;20031;-78
2021/08/08 01:37:48;;;;;;;2.40;0.70;;;17.70;79.50;;;;;;6246882;23;19919;-78
2021/08/08 01:40:21;;;;;;;0.95;0.70;;;17.60;79.70;;;;;;6245244;23;20028;-78
2021/08/08 01:42:56;;;;;;;1.75;0.85;;;17.60;79.80;;;;;;6249513;23;20054;-78
2021/08/08 01:45:24;;;;;;;2.10;0.63;;;17.40;80.40;;;;;;6248802;23;20071;-79
2021/08/08 01:47:57;;;;;;;2.38;0.95;;;17.40;80.30;;;;;;6250148;22;20020;-79
2021/08/08 01:50:31;;;;;;;2.75;0.73;;;17.30;80.60;;;;;;6251012;23;20043;-79
2021/08/08 01:53:00;;;;;;;1.70;0.70;;;17.30;80.50;;;;;;6250410;23;20066;-79
2021/08/08 01:55:34;;;;;;;1.90;0.82;;;17.20;80.60;;;;;;6250403;22;20020;-78
2021/08/08 01:58:09;;;;;;;2.88;0.90;;;17.20;80.60;;;;;;6248673;23;20032;-79
2021/08/08 02:00:39;;;;;;;1.85;0.90;;;17.20;80.60;;;;;;6245179;23;20034;-78
2021/08/08 02:03:16;;;;;;;1.40;0.60;;;17.10;80.90;;;;;;6249725;23;20020;-80
2021/08/08 02:05:49;;;;;;;1.08;0.60;;;17.10;80.80;;;;;;6248435;23;20022;-80
2021/08/08 02:08:19;;;;;;;;;;;17.10;80.60;;;;;;6251223;23;20066;-81
2021/08/08 02:11:04;;;;;;;2.75;0.50;;;17.20;80.20;;;;;;6249925;23;19927;-80
2021/08/08 02:13:45;;;;;;;1.60;0.63;;;17.20;80.10;;;;;;6250299;23;20096;-80
2021/08/08 02:16:13;;;;;;;2.53;0.85;;;17.20;80.00;;;;;;6276539;22;20111;-80
2021/08/08 02:18:40;;;;;;;1.38;0.47;;;17.20;79.80;;;;;;6251553;23;20018;-81
2021/08/08 02:21:10;;;;;;;0.60;0.45;;;17.20;80.00;;;;;;6250748;23;20035;-81
2021/08/08 02:23:39;;;;;;;1.58;0.68;;;17.20;80.10;;;;;;6247462;23;20334;-81
2021/08/08 02:26:08;;;;;;;1.02;0.45;;;17.10;80.40;;;;;;6246882;22;20231;-81
2021/08/08 02:28:41;;;;;;;3.05;0.60;;;17.10;80.60;;;;;;6248929;23;20012;-81
2021/08/08 02:31:11;;;;;;;3.45;0.50;;;17.00;80.90;;;;;;6246486;23;20028;-81
2021/08/08 02:33:40;;;;;;;0.68;0.47;;;16.90;81.00;;;;;;6243903;23;20028;-81
2021/08/08 02:36:08;;;;;;;1.30;0.45;;;16.70;81.20;;;;;;6247175;23;20016;-80
2021/08/08 02:38:47;;;;;;;1.08;0.63;;;16.70;81.60;;;;;;6249890;23;20267;-80
2021/08/08 02:41:14;;;;;;;2.70;0.63;;;16.70;81.40;;;;;;6248982;23;20379;-80
2021/08/08 02:43:43;;;;;;;1.77;0.60;;;16.70;81.50;;;;;;6249798;23;20020;-80
2021/08/08 02:46:13;;;;;;;1.40;0.70;;;16.70;81.70;;;;;;6245611;23;20197;-80
2021/08/08 02:48:40;;;;;;;4.82;0.70;;;16.70;81.50;;;;;;6250874;23;20024;-80
2021/08/08 02:51:11;;;;;;;1.90;0.65;;;16.70;81.30;;;;;;6247976;23;20035;-80
2021/08/08 02:53:38;;;;;;;2.15;0.63;;;16.80;81.10;;;;;;6248899;23;20050;-79
2021/08/08 02:56:06;;;;;;;4.13;0.70;;;16.80;81.00;;;;;;6276286;22;20042;-80
2021/08/08 02:58:34;;;;;;;1.52;0.80;;;16.80;81.00;;;;;;6249150;23;20036;-80
2021/08/08 03:01:03;;;;;;;3.80;0.82;;;16.80;81.10;;;;;;6241353;23;20027;-80
2021/08/08 03:03:34;;;;;;;3.92;0.82;;;16.80;81.10;;;;;;6250262;23;20078;-80
2021/08/08 03:06:02;;;;;;;2.38;0.60;;;16.70;81.30;;;;;;6249385;23;20024;-80
2021/08/08 03:08:29;;;;;;;2.33;0.52;;;16.70;81.20;;;;;;6248637;23;20196;-80
2021/08/08 03:10:57;;;;;;;2.10;0.68;;;16.80;81.40;;;;;;6251859;23;20020;-79
2021/08/08 03:13:32;;;;;;;2.63;0.65;;;16.80;81.20;;;;;;6253174;23;20078;-80
2021/08/08 03:16:00;;;;;;;1.38;0.75;;;16.70;81.40;;;;;;6252537;23;20024;-80
2021/08/08 03:18:36;;;;;;;2.97;1.13;;;16.70;81.40;;;;;;6253355;23;20362;-80
2021/08/08 03:21:05;;;;;;;1.38;0.65;;;16.80;81.10;;;;;;6252771;23;20324;-80
2021/08/08 03:23:32;;;;;;;2.40;0.80;;;16.80;81.10;;;;;;6252844;23;20027;-79
2021/08/08 03:26:01;;;;;;;4.53;0.70;;;16.70;80.90;;;;;;6252229;22;20056;-80
2021/08/08 03:28:33;;;;;;;2.17;0.93;;;16.70;80.90;;;;;;6253011;23;20042;-80
2021/08/08 03:31:00;;;;;;;2.25;0.90;;;16.70;81.10;;;;;;6253152;23;20036;-80
2021/08/08 03:33:32;;;;;;;4.30;1.30;;;16.70;81.00;;;;;;6252801;23;20031;-80
2021/08/08 03:36:01;;;;;;;3.05;0.77;;;16.60;81.20;;;;;;6253402;22;20027;-79
2021/08/08 03:38:28;;;;;;;1.98;0.73;;;16.60;81.20;;;;;;6252288;23;20020;-79
2021/08/08 03:40:57;;;;;;;2.08;0.68;;;16.60;81.20;;;;;;6252622;23;20020;-80
2021/08/08 03:43:25;;;;;;;2.28;0.95;;;16.60;81.30;;;;;;6252871;23;20019;-80
2021/08/08 03:45:53;;;;;;;3.53;1.08;;;16.60;81.30;;;;;;6274744;22;20092;-80
2021/08/08 03:48:20;;;;;;;2.45;0.70;;;16.60;81.10;;;;;;6250986;23;20078;-80
2021/08/08 03:50:48;;;;;;;1.15;0.70;;;16.60;81.20;;;;;;6251723;23;20397;-80
2021/08/08 03:53:16;;;;;;;3.67;0.90;;;16.60;81.10;;;;;;6251792;22;20034;-80
2021/08/08 03:55:44;;;;;;;1.38;0.80;;;16.60;81.00;;;;;;6252655;23;20023;-80
2021/08/08 03:58:11;;;;;;;2.53;1.10;;;16.60;81.20;;;;;;6252650;23;20051;-80
2021/08/08 04:00:40;;;;;;;1.45;0.68;;;16.60;81.20;;;;;;6246661;23;20074;-79
2021/08/08 04:03:09;;;;;;;1.23;0.50;;;16.60;81.20;;;;;;6250460;23;20375;-80
2021/08/08 04:05:36;;;;;;;2.00;0.98;;;16.60;81.10;;;;;;6251726;22;20020;-80
2021/08/08 04:08:04;;;;;;;2.03;0.70;;;16.60;81.10;;;;;;6250256;23;20291;-80
2021/08/08 04:10:35;;;;;;;1.77;0.80;;;16.60;81.00;;;;;;6250754;22;20031;-79
2021/08/08 04:13:02;;;;;;;2.20;0.95;;;16.60;81.00;;;;;;6250448;23;20080;-81
2021/08/08 04:15:35;;;;;;;4.25;0.80;;;16.70;81.10;;;;;;6249736;23;20308;-80
2021/08/08 04:18:02;;;;;;;1.63;0.82;;;16.60;81.10;;;;;;6249634;23;20028;-77
2021/08/08 04:20:34;;;;;;;3.38;0.93;;;16.70;81.20;;;;;;6250038;23;20138;-77
2021/08/08 04:23:02;;;;;;;2.45;0.68;;;16.70;80.80;;;;;;6249484;23;20043;-77
2021/08/08 04:25:39;;;;;;;1.55;0.73;;;16.70;81.00;;;;;;6250442;23;20035;-80
2021/08/08 04:28:09;;;;;;;3.20;0.95;;;16.70;80.70;;;;;;6246419;22;20038;-79
2021/08/08 04:30:38;;;;;;;2.97;0.80;;;16.60;80.90;;;;;;6244310;23;20024;-79
2021/08/08 04:33:06;;;;;;;2.63;0.98;;;16.60;81.00;;;;;;6246571;23;20066;-79
2021/08/08 04:35:34;;;;;;;1.42;0.90;;;16.70;80.80;;;;;;6249715;23;20257;-79
2021/08/08 04:38:02;;;;;;;2.80;1.13;;;16.70;80.90;;;;;;6250004;23;20012;-79
2021/08/08 04:40:34;;;;;;;7.50;1.05;;;16.70;80.90;;;;;;6249737;23;20115;-79
2021/08/08 04:43:04;;;;;;;2.20;0.88;;;16.60;81.10;;;;;;6248357;23;20032;-78
2021/08/08 04:45:32;;;;;;;2.60;0.82;;;16.70;81.00;;;;;;6251397;23;20031;-79
2021/08/08 04:48:00;;;;;;;1.80;0.80;;;16.70;80.60;;;;;;6250238;23;20262;-80
2021/08/08 04:50:27;;;;;;;1.40;0.80;;;16.70;80.50;;;;;;6247472;22;20016;-79
2021/08/08 04:52:55;;;;;;;3.97;0.88;;;16.70;80.60;;;;;;6250320;23;20028;-79
2021/08/08 04:55:22;;;;;;;6.03;1.00;;;16.70;80.00;;;;;;6251157;23;20024;-79
2021/08/08 04:57:51;;;;;;;2.22;0.90;;;16.80;80.30;;;;;;6252940;23;20427;-78
2021/08/08 05:00:23;;;;;;;1.42;0.50;;;16.90;79.80;;;;;;6247042;23;20334;-79
2021/08/08 05:02:51;;;;;;;2.03;1.00;;;16.90;79.60;;;;;;6250764;23;20332;-79
2021/08/08 05:05:18;;;;;;;2.55;0.82;;;17.00;79.50;;;;;;6251993;23;20031;-79
2021/08/08 05:07:47;;;;;;;5.13;1.10;;;17.00;79.40;;;;;;6250475;23;20019;-80
2021/08/08 05:10:18;;;;;;;1.88;0.80;;;17.10;79.20;;;;;;6249115;22;20016;-79
2021/08/08 05:12:50;;;;;;;1.05;0.63;;;17.10;79.40;;;;;;6248764;23;20043;-80
2021/08/08 05:15:17;;;;;;;3.50;0.73;;;17.00;79.60;;;;;;6249501;23;20039;-80
2021/08/08 05:17:47;;;;;;;3.83;0.88;;;17.10;79.20;;;;;;6248581;23;20020;-79
2021/08/08 05:20:15;;;;;;;3.08;0.70;;;17.10;79.20;;;;;;6249485;22;20031;-80
2021/08/08 05:22:42;;;;;;;3.70;0.70;;;17.10;79.30;;;;;;6250059;23;20111;-79
2021/08/08 05:25:12;;;;;;;2.60;0.70;;;17.10;78.90;;;;;;6250273;23;20086;-79
2021/08/08 05:27:40;;;;;;;2.33;0.70;;;17.10;78.90;;;;;;6250034;22;20267;-80
2021/08/08 05:30:12;;;;;;;3.28;0.88;;;17.20;78.80;;;;;;6248306;23;20266;-80
2021/08/08 05:32:41;;;;;;;2.58;1.02;;;17.10;79.20;;;;;;6245712;23;20583;-78
2021/08/08 05:35:11;;;;;;;4.15;1.05;;;17.10;78.30;;;;;;6248218;23;20028;-79
2021/08/08 05:37:38;;;;;;;4.05;0.85;;;17.20;78.40;;;;;;6245226;22;20319;-79
2021/08/08 05:40:07;;;;;;;1.42;0.50;;;17.20;78.20;;;;;;6245866;23;20418;-79
2021/08/08 05:42:47;;;;;;;3.13;0.75;;;17.20;78.00;;;;;;6248836;23;20042;-79
2021/08/08 05:45:15;;;;;;;4.10;0.90;;;17.20;78.10;;;;;;6248006;23;20028;-80
2021/08/08 05:47:42;;;;;;;1.45;0.60;;;17.10;78.30;;;;;;6249273;22;20431;-80
2021/08/08 05:50:11;;;;;;;1.73;0.70;;;17.30;77.60;;;;;;6249806;22;20024;-80
2021/08/08 05:52:39;;;;;;;3.53;1.02;;;17.30;77.50;;;;;;6247131;23;20020;-79
2021/08/08 05:55:07;;;;;;;3.13;0.70;;;17.30;77.70;;;;;;6247004;23;20020;-80
2021/08/08 05:57:35;;;;;;;6.93;1.15;;;17.30;77.20;;;;;;6246806;23;20055;-79
2021/08/08 06:00:02;;;;;;;2.13;0.65;;;17.40;77.30;;;;;;6247871;23;20028;-79
2021/08/08 06:02:43;;;;;;;1.83;0.60;;;17.40;77.40;;;;;;6248277;23;20066;-79
2021/08/08 06:05:14;;;;;;;1.45;0.70;;;17.50;76.50;;;;;;6248115;22;20019;-79
2021/08/08 06:07:41;;;;;;;2.35;0.50;;;17.50;76.20;;;;;;6247500;23;20027;-79
2021/08/08 06:10:09;;;;;;;3.55;0.60;;;17.50;76.60;;;;;;6248849;22;20023;-79
2021/08/08 06:12:37;;;;;;;3.80;0.95;;;17.40;76.70;;;;;;6244578;23;20027;-79
2021/08/08 06:15:06;;;;;;;1.70;0.65;;;17.50;76.80;;;;;;6245925;23;20049;-79
2021/08/08 06:17:33;;;;;;;3.97;0.80;;;17.40;77.00;;;;;;6248311;23;20071;-80
2021/08/08 06:20:01;;;;;;;3.22;1.27;;;17.40;76.80;;;;;;6244865;22;20357;-78
2021/08/08 06:22:36;;;;;;;4.00;1.05;;;17.40;76.40;;;;;;6247303;23;20028;-79
2021/08/08 06:25:04;;;;;;;2.43;0.93;;;17.50;76.30;;;;;;6247757;23;20378;-79
2021/08/08 06:27:31;;;;;;;2.28;0.95;;;17.50;76.70;;;;;;6245993;22;20012;-79
2021/08/08 06:29:59;;;;;;;1.80;0.80;;;17.60;76.10;;;;;;6254993;23;20039;-79
2021/08/08 06:32:27;;;;;;;3.20;0.80;;;17.70;75.80;;;;;;6248081;23;20099;-79
2021/08/08 06:34:54;;;;;;;6.38;1.10;;;17.80;75.20;;;;;;6248190;23;20020;-80
2021/08/08 06:37:21;;;;;;;1.80;0.82;;;18.00;74.90;;;;;;6249254;23;20317;-79
2021/08/08 06:39:50;;;;;;;2.92;0.93;;;18.10;75.00;;;;;;6249957;23;20024;-78
2021/08/08 06:42:19;;;;;;;2.33;1.23;;;18.10;74.90;;;;;;6248817;23;20031;-79
2021/08/08 06:44:49;;;;;;;6.50;0.88;;;18.10;73.20;;;;;;6249175;23;20032;-79
2021/08/08 06:47:16;;;;;;;2.10;0.90;;;18.10;73.00;;;;;;6249212;23;20024;-79
2021/08/08 06:49:44;;;;;;;2.08;0.70;;;18.20;73.20;;;;;;6249404;22;20307;-80
2021/08/08 06:52:12;;;;;;;4.00;0.93;;;18.20;72.90;;;;;;6251146;23;20266;-79
2021/08/08 06:54:40;;;;;;;1.83;1.00;;;18.10;72.50;;;;;;6250116;23;20028;-80
2021/08/08 06:57:08;;;;;;;2.15;0.70;;;18.00;73.00;;;;;;6251636;23;20024;-79
2021/08/08 06:59:39;;;;;;;1.77;1.00;;;18.10;73.20;;;;;;6249641;23;20066;-79
2021/08/08 07:02:08;;;;;;;4.05;0.88;;;18.30;73.00;;;;;;6272372;22;20094;-79
2021/08/08 07:04:35;;;;;;;6.72;1.10;;;18.30;71.80;;;;;;6247472;23;20193;-80
2021/08/08 07:07:02;;;;;;;2.25;0.80;;;18.50;71.20;;;;;;6253264;23;20031;-79
2021/08/08 07:09:31;;;;;;;3.30;0.90;;;18.40;71.40;;;;;;6249815;23;20090;-80
2021/08/08 07:11:59;;;;;;;2.08;0.88;;;18.50;71.60;;;;;;6251935;23;20258;-79
2021/08/08 07:14:38;;;;;;;2.88;1.00;;;18.50;71.60;;;;;;6250196;23;20300;-79
2021/08/08 07:17:06;;;;;;;3.70;0.88;;;18.50;71.60;;;;;;6250554;23;20361;-81
2021/08/08 07:19:34;;;;;;;7.45;3.03;;;18.40;70.90;;;;;;6251799;23;20074;-80
2021/08/08 07:22:01;;;;;;;4.80;0.85;;;18.50;71.30;;;;;;6253160;23;20204;-79
2021/08/08 07:24:36;;;;;;;2.40;0.77;;;18.70;70.90;;;;;;6250257;23;20214;-79
2021/08/08 07:27:07;;;;;;;5.32;1.02;;;18.50;71.50;;;;;;6249485;22;20079;-80
2021/08/08 07:29:34;;;;;;;3.67;1.33;;;18.60;70.50;;;;;;6252089;22;20024;-80
2021/08/08 07:32:05;;;;;;;2.45;0.88;;;18.60;71.20;;;;;;6249131;23;20087;-80
2021/08/08 07:34:33;;;;;;;1.25;0.77;;;18.80;71.00;;;;;;6253453;22;20016;-80
2021/08/08 07:37:01;;;;;;;3.65;1.05;;;18.70;70.60;;;;;;6254150;23;20075;-80
2021/08/08 07:39:38;;;;;;;3.63;1.00;;;18.70;70.20;;;;;;6251680;23;20089;-80
2021/08/08 07:42:06;;;;;;;3.17;1.15;;;18.80;70.10;;;;;;6273026;22;20028;-80
2021/08/08 07:44:33;;;;;;;2.03;1.10;;;19.00;70.10;;;;;;6252147;23;20019;-80
2021/08/08 07:47:01;;;;;;;2.65;1.00;;;18.70;69.10;;;;;;6254496;23;20046;-79
2021/08/08 07:49:30;;;;;;;3.45;0.80;;;18.70;69.70;;;;;;6253677;23;20016;-80
2021/08/08 07:51:58;;;;;;;1.50;0.85;;;18.80;68.90;;;;;;6252436;23;20261;-80
2021/08/08 07:54:25;;;;;;;4.20;1.30;;;19.00;68.60;;;;;;6278689;22;20086;-80
2021/08/08 07:56:53;;;;;;;3.85;1.13;;;19.20;68.30;;;;;;6252876;23;20259;-79
2021/08/08 07:59:20;;;;;;;3.35;1.20;;;19.30;68.20;;;;;;6251749;23;20393;-80
2021/08/08 08:01:48;;;;;;;3.35;1.05;;;19.20;67.90;;;;;;6248142;23;20028;-78
2021/08/08 08:04:16;;;;;;;2.55;0.85;;;19.40;67.70;;;;;;6275157;22;20048;-78
2021/08/08 08:06:45;;;;;;;2.97;0.75;;;19.60;66.40;;;;;;6250055;23;20019;-78
2021/08/08 08:09:13;;;;;;;3.42;0.88;;;19.40;66.30;;;;;;6246279;23;20028;-77
2021/08/08 08:11:41;;;;;;;3.58;0.95;;;19.40;66.30;;;;;;6248078;23;20028;-77
2021/08/08 08:14:10;;;;;;;4.28;1.08;;;19.20;66.30;;;;;;6249895;23;20043;-77
2021/08/08 08:16:37;;;;;;;4.18;1.50;;;19.50;65.90;;;;;;6250182;23;20103;-77
2021/08/08 08:19:05;;;;;;;4.97;1.10;;;19.40;65.90;;;;;;6247864;23;20193;-77
2021/08/08 08:21:33;;;;;;;3.90;1.20;;;19.30;66.50;;;;;;6246384;23;20267;-80
2021/08/08 08:24:01;;;;;;;2.97;1.08;;;18.90;66.80;;;;;;6250104;23;20020;-80
2021/08/08 08:26:31;;;;;;;4.47;1.23;;;19.00;66.70;;;;;;6248581;22;20024;-79
2021/08/08 08:28:58;;;;;;;5.30;1.05;;;19.20;66.90;;;;;;6251200;23;20039;-77
2021/08/08 08:31:26;;;;;;;4.88;1.10;;;19.40;66.50;;;;;;6247230;23;20028;-79
2021/08/08 08:33:53;;;;;;;5.30;1.10;;;19.60;65.50;;;;;;6249216;23;20024;-77
2021/08/08 08:36:21;;;;;;;3.95;0.70;;;19.90;64.30;;;;;;6254936;23;20012;-77
2021/08/08 08:38:48;;;;;;;2.28;1.00;;;19.90;63.50;;;;;;6251463;23;20082;-78
2021/08/08 08:41:18;;;;;;;3.83;1.17;;;19.60;64.40;;;;;;6251255;23;20027;-78
2021/08/08 08:43:46;;;;;;;4.30;0.98;;;19.60;62.90;;;;;;6252581;23;20027;-79
2021/08/08 08:46:15;;;;;;;2.47;0.80;;;19.80;63.40;;;;;;6248608;22;20062;-79
2021/08/08 08:48:44;;;;;;;5.07;1.20;;;19.70;63.50;;;;;;6247580;23;20034;-78
2021/08/08 08:51:15;;;;;;;2.97;1.00;;;19.50;63.70;;;;;;6253247;23;20020;-78
2021/08/08 08:53:45;;;;;;;3.88;0.90;;;19.40;64.70;;;;;;6276761;22;20047;-79
2021/08/08 08:56:13;;;;;;;1.40;0.73;;;19.60;64.40;;;;;;6247990;23;20075;-78
2021/08/08 08:58:43;;;;;;;4.63;0.98;;;19.70;63.60;;;;;;6275355;22;20090;-78
2021/08/08 09:01:11;;;;;;;6.28;1.38;;;19.70;63.60;;;;;;6244658;23;20334;-78
2021/08/08 09:03:40;;;;;;;4.65;1.10;;;19.70;62.80;;;;;;6247308;23;20253;-79
2021/08/08 09:06:08;;;;;;;1.27;0.90;;;20.10;62.80;;;;;;6246994;23;20205;-79
2021/08/08 09:08:37;;;;;;;2.08;0.90;;;20.20;60.60;;;;;;6249642;23;20324;-79
2021/08/08 09:11:07;;;;;;;2.63;0.82;;;20.20;60.20;;;;;;6251351;23;20019;-78
2021/08/08 09:13:53;;;;;;;3.58;0.90;;;20.20;60.30;;;;;;6248725;23;20083;-77
2021/08/08 09:16:23;;;;;;;4.78;1.23;;;20.10;58.40;;;;;;6247046;23;20028;-78
2021/08/08 09:18:52;;;;;;;3.67;0.60;;;20.20;59.60;;;;;;6248611;23;20028;-79
2021/08/08 09:21:22;;;;;;;3.70;0.90;;;20.60;58.20;;;;;;6246121;23;20172;-78
2021/08/08 09:23:57;;;;;;;4.45;0.75;;;20.60;57.80;;;;;;6249312;23;20028;-78
2021/08/08 09:26:32;;;;;;;1.88;0.80;;;20.80;57.20;;;;;;6248672;22;20091;-77
2021/08/08 09:29:10;;;;;;;2.08;0.63;;;20.10;58.30;;;;;;6246039;23;20030;-78
2021/08/08 09:31:42;;;;;;;2.17;0.90;;;20.30;57.40;;;;;;6250200;22;20074;-78
2021/08/08 09:34:21;;;;;;;2.80;0.75;;;20.50;57.40;;;;;;6270189;22;20264;-77
2021/08/08 09:36:48;;;;;;;1.42;0.85;;;20.20;57.00;;;;;;6245277;23;20024;-78
2021/08/08 09:39:27;;;;;;;1.05;0.65;;;20.10;57.00;;;;;;6249357;22;20020;-78
2021/08/08 09:42:08;;;;;;;2.28;0.90;;;20.20;57.10;;;;;;6243628;23;20028;-76
2021/08/08 09:44:37;;;;;;;5.35;1.13;;;20.70;56.50;;;;;;6250200;22;20259;-78
2021/08/08 09:47:06;;;;;;;5.57;1.58;;;20.70;55.80;;;;;;6252267;23;20185;-78
2021/08/08 09:49:37;;;;;;;3.15;0.95;;;20.70;54.50;;;;;;6247759;23;20016;-78
2021/08/08 09:52:05;;;;;;;3.05;0.90;;;20.70;53.60;;;;;;6250017;22;20024;-78
2021/08/08 09:54:37;;;;;;;1.70;0.70;;;20.90;53.20;;;;;;6248951;23;20030;-78
2021/08/08 09:57:05;;;;;;;5.90;0.88;;;21.00;52.80;;;;;;6246726;23;20024;-78
2021/08/08 09:59:46;;;;;;;3.35;1.10;;;21.30;53.30;;;;;;6249868;23;20031;-78
2021/08/08 10:02:19;;;;;;;3.45;0.90;;;21.40;51.30;;;;;;6246032;23;20028;-78
2021/08/08 10:04:47;;;;;;;3.03;0.95;;;21.00;50.80;;;;;;6246060;23;20223;-79
2021/08/08 10:07:16;;;;;;;2.70;1.05;;;20.70;52.10;;;;;;6249950;22;20078;-78
2021/08/08 10:09:46;;;;;;;3.83;0.95;;;21.10;52.10;;;;;;6246963;23;20380;-77
2021/08/08 10:12:35;;;;;;;2.83;1.10;;;21.40;51.80;;;;;;6252404;23;20050;-78
2021/08/08 10:15:04;;;;;;;3.05;0.80;;;21.80;50.60;;;;;;6249651;23;20030;-77
2021/08/08 10:17:35;;;;;;;2.37;0.87;;;22.50;48.90;;;;;;6249835;23;20066;-78
2021/08/08 10:20:04;;;;;;;2.10;0.70;;;22.10;48.10;;;;;;6252631;23;20357;-77
2021/08/08 10:22:35;;;;;;;4.22;1.23;;;22.10;48.60;;;;;;6252423;23;20251;-78
2021/08/08 10:25:02;;;;;;;2.20;0.70;;;23.10;46.70;;;;;;6251227;23;20024;-78
2021/08/08 10:27:32;;;;;;;1.88;0.77;;;24.10;46.20;;;;;;6252247;22;20273;-78
2021/08/08 10:30:00;;;;;;;4.57;0.80;;;25.10;44.00;;;;;;6254837;22;20020;-78
2021/08/08 10:32:31;;;;;;;3.90;0.90;;;24.30;42.80;;;;;;6251782;23;20043;-78
2021/08/08 10:35:09;;;;;;;3.30;0.68;;;24.10;43.90;;;;;;6252156;22;20028;-78
2021/08/08 10:37:37;;;;;;;5.28;1.13;;;23.80;45.10;;;;;;6252146;22;20019;-77
2021/08/08 10:40:05;;;;;;;5.50;0.93;;;23.20;45.80;;;;;;6252122;23;20027;-78
2021/08/08 10:42:42;;;;;;;3.53;1.00;;;23.10;47.00;;;;;;6251035;23;20044;-78
2021/08/08 10:45:23;;;;;;;5.03;0.80;;;22.70;47.60;;;;;;6251069;23;20032;-78
2021/08/08 10:47:59;;;;;;;3.17;0.93;;;23.10;47.30;;;;;;6250536;23;20042;-77
2021/08/08 10:50:38;;;;;;;4.68;1.20;;;23.80;46.50;;;;;;6250298;23;20223;-77
2021/08/08 10:53:06;;;;;;;1.10;0.70;;;24.50;44.20;;;;;;6250033;23;20024;-78
2021/08/08 10:55:37;;;;;;;2.78;0.68;;;24.10;43.80;;;;;;6244992;23;20031;-78
2021/08/08 10:58:16;;;;;;;2.85;1.08;;;24.50;42.90;;;;;;6250614;23;20020;-78
2021/08/08 11:00:44;;;;;;;3.17;0.80;;;25.60;40.20;;;;;;6244078;23;20066;-78
2021/08/08 11:03:15;;;;;;;2.88;0.73;;;25.10;42.00;;;;;;6248351;22;20016;-78
2021/08/08 11:05:44;;;;;;;2.40;0.73;;;26.40;39.40;;;;;;6247756;23;20370;-78
2021/08/08 11:08:13;;;;;;;3.13;0.68;;;26.50;38.10;;;;;;6250183;23;20016;-78
2021/08/08 11:10:43;;;;;;;3.72;0.80;;;26.40;39.40;;;;;;6248701;23;20028;-78
2021/08/08 11:13:22;;;;;;;4.05;1.05;;;26.80;38.90;;;;;;6250194;23;20027;-78
2021/08/08 11:15:51;;;;;;;1.97;0.63;;;26.00;39.90;;;;;;6278574;22;20161;-78
2021/08/08 11:18:29;;;;;;;4.10;0.90;;;25.00;41.00;;;;;;6250526;23;20024;-78
2021/08/08 11:20:57;;;;;;;4.57;0.93;;;25.10;41.60;;;;;;6252338;22;20040;-78
2021/08/08 11:23:29;;;;;;;3.65;1.25;;;25.80;39.90;;;;;;6276409;22;20328;-78
2021/08/08 11:25:57;;;;;;;2.63;1.05;;;25.00;40.90;;;;;;6253194;22;20324;-77
2021/08/08 11:28:24;;;;;;;6.85;0.90;;;25.10;40.80;;;;;;6253846;22;20221;-78
2021/08/08 11:30:53;;;;;;;9.40;0.90;;;24.80;41.90;;;;;;6253948;22;20016;-78
2021/08/08 11:33:25;;;;;;;2.17;0.77;;;26.00;39.70;;;;;;6248402;23;20035;-77
2021/08/08 11:36:00;;;;;;;2.83;0.63;;;24.60;41.30;;;;;;6251965;23;20044;-78
2021/08/08 11:38:34;;;;;;;1.38;0.70;;;24.40;42.60;;;;;;6254295;23;20018;-76
2021/08/08 11:41:01;;;;;;;0.82;0.60;;;24.10;43.80;;;;;;6251287;23;20020;-78
2021/08/08 11:43:32;;;;;;;2.65;0.80;;;24.30;43.10;;;;;;6251778;23;20028;-77
2021/08/08 11:46:00;;;;;;;2.72;0.95;;;24.80;42.80;;;;;;6252753;22;20039;-78
2021/08/08 11:48:32;;;;;;;2.03;0.82;;;25.30;42.70;;;;;;6250035;23;20020;-78
2021/08/08 11:51:01;;;;;;;6.20;1.35;;;25.70;41.60;;;;;;6249759;22;20028;-78
2021/08/08 11:53:35;;;;;;;2.47;0.90;;;25.90;41.20;;;;;;6251172;23;20024;-79
2021/08/08 11:56:17;;;;;;;3.28;0.70;;;26.20;41.40;;;;;;6248730;23;20089;-76
2021/08/08 11:58:45;;;;;;;1.02;0.52;;;27.70;37.10;;;;;;6253864;22;20282;-77
2021/08/08 12:01:13;;;;;;;3.20;0.80;;;28.00;37.70;;;;;;6246847;22;20024;-78
2021/08/08 12:03:41;;;;;;;1.50;0.60;;;29.70;33.60;;;;;;6251591;22;20027;-78
2021/08/08 12:06:10;;;;;;;4.18;1.13;;;29.50;33.50;;;;;;6252157;23;20059;-78
2021/08/08 12:08:37;;;;;;;2.55;0.80;;;28.20;35.50;;;;;;6250554;23;20020;-77
2021/08/08 12:11:04;;;;;;;4.20;0.75;;;27.90;35.80;;;;;;6250004;22;20066;-78
2021/08/08 12:13:32;;;;;;;3.35;1.05;;;27.40;35.80;;;;;;6251156;22;20062;-77
2021/08/08 12:16:00;;;;;;;3.95;0.85;;;25.40;39.20;;;;;;6252423;22;20016;-78
2021/08/08 12:18:29;;;;;;;2.37;0.83;;;25.70;39.00;;;;;;6252507;23;20024;-77
2021/08/08 12:20:59;;;;;;;2.88;0.63;;;27.10;38.00;;;;;;6252179;22;20031;-77
2021/08/08 12:23:27;;;;;;;1.77;0.80;;;27.60;36.30;;;;;;6252383;22;20016;-77
2021/08/08 12:25:59;;;;;;;4.15;0.60;;;27.50;37.70;;;;;;6252259;22;20016;-79
2021/08/08 12:28:27;;;;;;;3.78;0.80;;;29.50;34.20;;;;;;6251803;23;20016;-78
2021/08/08 12:31:05;;;;;;;2.38;0.70;;;27.50;37.40;;;;;;6250463;23;20042;-77
2021/08/08 12:33:32;;;;;;;3.08;0.85;;;26.40;39.30;;;;;;6250459;22;20443;-77
2021/08/08 12:36:10;;;;;;;2.97;0.52;;;25.90;40.00;;;;;;6225250;23;20340;-80
2021/08/08 12:38:53;;;;;;;1.25;0.60;;;27.40;37.60;;;;;;6249909;23;20020;-77
2021/08/08 12:41:29;;;;;;;1.73;0.75;;;25.50;39.90;;;;;;6252466;23;20038;-77
2021/08/08 12:43:58;;;;;;;1.85;0.73;;;24.00;43.10;;;;;;6248512;23;20028;-77
2021/08/08 12:46:33;;;;;;;3.70;0.77;;;23.10;44.50;;;;;;6273711;22;20069;-77
2021/08/08 12:49:02;;;;;;;2.33;0.60;;;23.00;45.20;;;;;;6251055;22;20012;-77
2021/08/08 12:51:32;;;;;;;;;;;22.70;46.10;;;;;;6251083;23;20028;-77
2021/08/08 12:54:01;;;;;;;2.47;0.75;;;22.50;46.50;;;;;;6250367;23;20158;-77
2021/08/08 12:56:29;;;;;;;2.17;0.52;;;22.50;47.50;;;;;;6250611;23;20020;-77
2021/08/08 12:58:57;;;;;;;3.38;0.63;;;23.60;45.20;;;;;;6250596;23;20370;-78
2021/08/08 13:01:28;;;;;;;2.83;0.70;;;25.10;42.20;;;;;;6245403;23;20016;-77